sensor_id;sensor_type;location;lat;lon;timestamp;P1;P2;P0
54553;PMS5003;40450;55.848;-3.572;2023-06-10T00:02:05;15;15;
54553;PMS5003;40450;55.848;-3.572;2023-06-10T00:04:36;24;17;
54553;PMS5003;40450;55.848;-3.572;2023-06-10T00:07:07;18;15;
54553;PMS5003;40450;55.848;-3.572;2023-06-10T00:09:37;18;15;
54553;PMS5003;40450;55.848;-3.572;2023-06-10T00:12:08;16;16;
54553;PMS5003;40450;55.848;-3.572;2023-06-10T00:14:39;14;14;
54553;PMS5003;40450;55.848;-3.572;2023-06-10T00:17:09;16;15;
54553;PMS5003;40450;55.848;-3.572;2023-06-10T00:19:39;19;17;
54553;PMS5003;40450;55.848;-3.572;2023-06-10T00:22:09;21;18;
54553;PMS5003;40450;55.848;-3.572;2023-06-10T00:24:40;19;17;
54553;PMS5003;40450;55.848;-3.572;2023-06-10T00:27:10;19;18;
54553;PMS5003;40450;55.848;-3.572;2023-06-10T00:29:40;20;17;
54553;PMS5003;40450;55.848;-3.572;2023-06-10T00:32:10;19;16;
54553;PMS5003;40450;55.848;-3.572;2023-06-10T00:34:41;19;18;
54553;PMS5003;40450;55.848;-3.572;2023-06-10T00:37:11;18;17;
54553;PMS5003;40450;55.848;-3.572;2023-06-10T00:39:42;19;17;
54553;PMS5003;40450;55.848;-3.572;2023-06-10T00:42:13;19;18;
54553;PMS5003;40450;55.848;-3.572;2023-06-10T00:44:43;22;20;
54553;PMS5003;40450;55.848;-3.572;2023-06-10T00:47:14;23;21;
54553;PMS5003;40450;55.848;-3.572;2023-06-10T00:49:45;21;19;
54553;PMS5003;40450;55.848;-3.572;2023-06-10T00:52:15;21;19;
54553;PMS5003;40450;55.848;-3.572;2023-06-10T00:54:46;18;17;
54553;PMS5003;40450;55.848;-3.572;2023-06-10T00:57:16;17;15;
54553;PMS5003;40450;55.848;-3.572;2023-06-10T00:59:47;24;18;
54553;PMS5003;40450;55.848;-3.572;2023-06-10T01:02:17;18;18;
54553;PMS5003;40450;55.848;-3.572;2023-06-10T01:04:47;23;21;
54553;PMS5003;40450;55.848;-3.572;2023-06-10T01:07:20;19;15;
54553;PMS5003;40450;55.848;-3.572;2023-06-10T01:09:49;21;17;
54553;PMS5003;40450;55.848;-3.572;2023-06-10T01:12:19;18;17;
54553;PMS5003;40450;55.848;-3.572;2023-06-10T01:14:49;17;14;
54553;PMS5003;40450;55.848;-3.572;2023-06-10T01:17:19;25;19;
54553;PMS5003;40450;55.848;-3.572;2023-06-10T01:19:53;25;21;
54553;PMS5003;40450;55.848;-3.572;2023-06-10T01:22:21;20;16;
54553;PMS5003;40450;55.848;-3.572;2023-06-10T01:24:51;25;19;
54553;PMS5003;40450;55.848;-3.572;2023-06-10T01:27:21;26;22;
54553;PMS5003;40450;55.848;-3.572;2023-06-10T01:29:54;25;18;
54553;PMS5003;40450;55.848;-3.572;2023-06-10T01:32:24;18;17;
54553;PMS5003;40450;55.848;-3.572;2023-06-10T01:34:53;22;19;
54553;PMS5003;40450;55.848;-3.572;2023-06-10T01:37:23;17;14;
54553;PMS5003;40450;55.848;-3.572;2023-06-10T01:39:55;22;18;
54553;PMS5003;40450;55.848;-3.572;2023-06-10T01:42:24;21;20;
54553;PMS5003;40450;55.848;-3.572;2023-06-10T01:44:54;22;21;
54553;PMS5003;40450;55.848;-3.572;2023-06-10T01:47:25;25;22;
54553;PMS5003;40450;55.848;-3.572;2023-06-10T01:49:56;14;14;
54553;PMS5003;40450;55.848;-3.572;2023-06-10T01:52:26;25;23;
54553;PMS5003;40450;55.848;-3.572;2023-06-10T01:54:57;20;19;
54553;PMS5003;40450;55.848;-3.572;2023-06-10T01:57:27;27;23;
54553;PMS5003;40450;55.848;-3.572;2023-06-10T01:59:58;24;20;
54553;PMS5003;40450;55.848;-3.572;2023-06-10T02:02:28;17;14;
54553;PMS5003;40450;55.848;-3.572;2023-06-10T02:04:59;27;21;
54553;PMS5003;40450;55.848;-3.572;2023-06-10T02:07:29;24;20;
54553;PMS5003;40450;55.848;-3.572;2023-06-10T02:09:59;26;24;
54553;PMS5003;40450;55.848;-3.572;2023-06-10T02:12:29;21;19;
54553;PMS5003;40450;55.848;-3.572;2023-06-10T02:15:01;22;19;
54553;PMS5003;40450;55.848;-3.572;2023-06-10T02:17:31;21;18;
54553;PMS5003;40450;55.848;-3.572;2023-06-10T02:20:01;21;17;
54553;PMS5003;40450;55.848;-3.572;2023-06-10T02:22:31;21;20;
54553;PMS5003;40450;55.848;-3.572;2023-06-10T02:25:01;24;18;
54553;PMS5003;40450;55.848;-3.572;2023-06-10T02:27:31;18;16;
54553;PMS5003;40450;55.848;-3.572;2023-06-10T02:30:02;21;17;
54553;PMS5003;40450;55.848;-3.572;2023-06-10T02:32:32;23;19;
54553;PMS5003;40450;55.848;-3.572;2023-06-10T02:35:03;26;18;
54553;PMS5003;40450;55.848;-3.572;2023-06-10T02:37:33;21;19;
54553;PMS5003;40450;55.848;-3.572;2023-06-10T02:40:03;19;17;
54553;PMS5003;40450;55.848;-3.572;2023-06-10T02:42:33;21;19;
54553;PMS5003;40450;55.848;-3.572;2023-06-10T02:45:04;20;20;
54553;PMS5003;40450;55.848;-3.572;2023-06-10T02:47:33;20;19;
54553;PMS5003;40450;55.848;-3.572;2023-06-10T02:50:04;25;20;
54553;PMS5003;40450;55.848;-3.572;2023-06-10T02:52:34;21;17;
54553;PMS5003;40450;55.848;-3.572;2023-06-10T02:55:05;20;18;
54553;PMS5003;40450;55.848;-3.572;2023-06-10T02:57:35;19;14;
54553;PMS5003;40450;55.848;-3.572;2023-06-10T03:00:06;26;26;
54553;PMS5003;40450;55.848;-3.572;2023-06-10T03:02:36;20;19;
54553;PMS5003;40450;55.848;-3.572;2023-06-10T03:05:07;21;21;
54553;PMS5003;40450;55.848;-3.572;2023-06-10T03:07:37;27;22;
54553;PMS5003;40450;55.848;-3.572;2023-06-10T03:10:08;21;19;
54553;PMS5003;40450;55.848;-3.572;2023-06-10T03:12:38;27;22;
54553;PMS5003;40450;55.848;-3.572;2023-06-10T03:15:09;20;18;
54553;PMS5003;40450;55.848;-3.572;2023-06-10T03:17:40;22;19;
54553;PMS5003;40450;55.848;-3.572;2023-06-10T03:20:11;27;23;
54553;PMS5003;40450;55.848;-3.572;2023-06-10T03:22:41;20;20;
54553;PMS5003;40450;55.848;-3.572;2023-06-10T03:25:11;26;24;
54553;PMS5003;40450;55.848;-3.572;2023-06-10T03:27:41;26;20;
54553;PMS5003;40450;55.848;-3.572;2023-06-10T03:30:12;25;20;
54553;PMS5003;40450;55.848;-3.572;2023-06-10T03:32:42;27;20;
54553;PMS5003;40450;55.848;-3.572;2023-06-10T03:35:12;22;17;
54553;PMS5003;40450;55.848;-3.572;2023-06-10T03:37:42;22;18;
54553;PMS5003;40450;55.848;-3.572;2023-06-10T03:40:12;22;19;
54553;PMS5003;40450;55.848;-3.572;2023-06-10T03:42:43;25;20;
54553;PMS5003;40450;55.848;-3.572;2023-06-10T03:45:14;22;18;
54553;PMS5003;40450;55.848;-3.572;2023-06-10T03:47:44;15;14;
54553;PMS5003;40450;55.848;-3.572;2023-06-10T03:50:15;18;17;
54553;PMS5003;40450;55.848;-3.572;2023-06-10T03:52:45;24;18;
54553;PMS5003;40450;55.848;-3.572;2023-06-10T03:55:16;21;18;
54553;PMS5003;40450;55.848;-3.572;2023-06-10T03:57:46;20;18;
54553;PMS5003;40450;55.848;-3.572;2023-06-10T04:00:17;21;18;
54553;PMS5003;40450;55.848;-3.572;2023-06-10T04:02:47;20;18;
54553;PMS5003;40450;55.848;-3.572;2023-06-10T04:05:18;24;20;
54553;PMS5003;40450;55.848;-3.572;2023-06-10T04:07:47;17;17;
54553;PMS5003;40450;55.848;-3.572;2023-06-10T04:10:18;24;20;
54553;PMS5003;40450;55.848;-3.572;2023-06-10T04:12:48;19;18;
54553;PMS5003;40450;55.848;-3.572;2023-06-10T04:15:19;17;17;
54553;PMS5003;40450;55.848;-3.572;2023-06-10T04:17:49;19;16;
54553;PMS5003;40450;55.848;-3.572;2023-06-10T04:20:19;24;20;
54553;PMS5003;40450;55.848;-3.572;2023-06-10T04:22:49;25;22;
54553;PMS5003;40450;55.848;-3.572;2023-06-10T04:25:19;16;16;
54553;PMS5003;40450;55.848;-3.572;2023-06-10T04:27:50;24;20;
54553;PMS5003;40450;55.848;-3.572;2023-06-10T04:30:20;22;19;
54553;PMS5003;40450;55.848;-3.572;2023-06-10T04:32:51;26;22;
54553;PMS5003;40450;55.848;-3.572;2023-06-10T04:35:21;23;20;
54553;PMS5003;40450;55.848;-3.572;2023-06-10T04:37:52;23;18;
54553;PMS5003;40450;55.848;-3.572;2023-06-10T04:40:22;26;22;
54553;PMS5003;40450;55.848;-3.572;2023-06-10T04:42:52;22;17;
54553;PMS5003;40450;55.848;-3.572;2023-06-10T04:45:23;24;21;
54553;PMS5003;40450;55.848;-3.572;2023-06-10T04:47:53;23;18;
54553;PMS5003;40450;55.848;-3.572;2023-06-10T04:50:29;19;17;
54553;PMS5003;40450;55.848;-3.572;2023-06-10T04:52:54;20;19;
54553;PMS5003;40450;55.848;-3.572;2023-06-10T04:55:25;22;18;
54553;PMS5003;40450;55.848;-3.572;2023-06-10T04:57:55;19;16;
54553;PMS5003;40450;55.848;-3.572;2023-06-10T05:00:26;18;15;
54553;PMS5003;40450;55.848;-3.572;2023-06-10T05:02:56;19;18;
54553;PMS5003;40450;55.848;-3.572;2023-06-10T05:05:27;20;17;
54553;PMS5003;40450;55.848;-3.572;2023-06-10T05:07:58;19;15;
54553;PMS5003;40450;55.848;-3.572;2023-06-10T05:10:28;17;17;
54553;PMS5003;40450;55.848;-3.572;2023-06-10T05:12:58;19;18;
54553;PMS5003;40450;55.848;-3.572;2023-06-10T05:15:28;21;21;
54553;PMS5003;40450;55.848;-3.572;2023-06-10T05:17:59;18;17;
54553;PMS5003;40450;55.848;-3.572;2023-06-10T05:20:30;23;22;
54553;PMS5003;40450;55.848;-3.572;2023-06-10T05:23:00;26;23;
54553;PMS5003;40450;55.848;-3.572;2023-06-10T05:25:32;22;21;
54553;PMS5003;40450;55.848;-3.572;2023-06-10T05:28:01;19;18;
54553;PMS5003;40450;55.848;-3.572;2023-06-10T05:30:31;21;20;
54553;PMS5003;40450;55.848;-3.572;2023-06-10T05:33:02;25;20;
54553;PMS5003;40450;55.848;-3.572;2023-06-10T05:35:32;24;18;
54553;PMS5003;40450;55.848;-3.572;2023-06-10T05:38:03;28;22;
54553;PMS5003;40450;55.848;-3.572;2023-06-10T05:40:33;23;20;
54553;PMS5003;40450;55.848;-3.572;2023-06-10T05:43:03;17;15;
54553;PMS5003;40450;55.848;-3.572;2023-06-10T05:45:33;22;21;
54553;PMS5003;40450;55.848;-3.572;2023-06-10T05:48:03;22;19;
54553;PMS5003;40450;55.848;-3.572;2023-06-10T05:50:34;22;20;
54553;PMS5003;40450;55.848;-3.572;2023-06-10T05:53:04;22;19;
54553;PMS5003;40450;55.848;-3.572;2023-06-10T05:55:34;16;14;
54553;PMS5003;40450;55.848;-3.572;2023-06-10T05:58:05;24;18;
54553;PMS5003;40450;55.848;-3.572;2023-06-10T06:00:35;22;20;
54553;PMS5003;40450;55.848;-3.572;2023-06-10T06:03:06;22;17;
54553;PMS5003;40450;55.848;-3.572;2023-06-10T06:05:37;13;13;
54553;PMS5003;40450;55.848;-3.572;2023-06-10T06:08:07;21;18;
54553;PMS5003;40450;55.848;-3.572;2023-06-10T06:10:37;17;13;
54553;PMS5003;40450;55.848;-3.572;2023-06-10T06:13:07;17;14;
54553;PMS5003;40450;55.848;-3.572;2023-06-10T06:15:37;17;16;
54553;PMS5003;40450;55.848;-3.572;2023-06-10T06:18:07;23;18;
54553;PMS5003;40450;55.848;-3.572;2023-06-10T06:20:38;16;13;
54553;PMS5003;40450;55.848;-3.572;2023-06-10T06:23:09;16;16;
54553;PMS5003;40450;55.848;-3.572;2023-06-10T06:25:39;19;16;
54553;PMS5003;40450;55.848;-3.572;2023-06-10T06:28:09;18;17;
54553;PMS5003;40450;55.848;-3.572;2023-06-10T06:30:39;20;16;
54553;PMS5003;40450;55.848;-3.572;2023-06-10T06:33:10;24;17;
54553;PMS5003;40450;55.848;-3.572;2023-06-10T06:35:41;14;13;
54553;PMS5003;40450;55.848;-3.572;2023-06-10T06:38:12;20;20;
54553;PMS5003;40450;55.848;-3.572;2023-06-10T06:40:42;17;15;
54553;PMS5003;40450;55.848;-3.572;2023-06-10T06:43:12;13;13;
54553;PMS5003;40450;55.848;-3.572;2023-06-10T06:45:42;16;15;
54553;PMS5003;40450;55.848;-3.572;2023-06-10T06:48:13;19;14;
54553;PMS5003;40450;55.848;-3.572;2023-06-10T06:50:43;15;15;
54553;PMS5003;40450;55.848;-3.572;2023-06-10T06:53:14;15;13;
54553;PMS5003;40450;55.848;-3.572;2023-06-10T06:55:44;17;16;
54553;PMS5003;40450;55.848;-3.572;2023-06-10T06:58:14;18;17;
54553;PMS5003;40450;55.848;-3.572;2023-06-10T07:00:45;19;17;
54553;PMS5003;40450;55.848;-3.572;2023-06-10T07:03:15;19;15;
54553;PMS5003;40450;55.848;-3.572;2023-06-10T07:05:46;19;17;
54553;PMS5003;40450;55.848;-3.572;2023-06-10T07:08:17;16;13;
54553;PMS5003;40450;55.848;-3.572;2023-06-10T07:10:47;19;16;
54553;PMS5003;40450;55.848;-3.572;2023-06-10T07:13:17;19;18;
54553;PMS5003;40450;55.848;-3.572;2023-06-10T07:15:48;17;16;
54553;PMS5003;40450;55.848;-3.572;2023-06-10T07:18:18;17;15;
54553;PMS5003;40450;55.848;-3.572;2023-06-10T07:20:49;17;16;
54553;PMS5003;40450;55.848;-3.572;2023-06-10T07:23:19;20;18;
54553;PMS5003;40450;55.848;-3.572;2023-06-10T07:25:50;18;16;
54553;PMS5003;40450;55.848;-3.572;2023-06-10T07:28:21;19;17;
54553;PMS5003;40450;55.848;-3.572;2023-06-10T07:30:51;24;21;
54553;PMS5003;40450;55.848;-3.572;2023-06-10T07:33:21;17;12;
54553;PMS5003;40450;55.848;-3.572;2023-06-10T07:35:52;20;17;
54553;PMS5003;40450;55.848;-3.572;2023-06-10T07:38:22;22;18;
54553;PMS5003;40450;55.848;-3.572;2023-06-10T07:40:53;17;15;
54553;PMS5003;40450;55.848;-3.572;2023-06-10T07:43:23;15;15;
54553;PMS5003;40450;55.848;-3.572;2023-06-10T07:45:53;16;16;
54553;PMS5003;40450;55.848;-3.572;2023-06-10T07:48:23;20;18;
54553;PMS5003;40450;55.848;-3.572;2023-06-10T07:50:54;18;17;
54553;PMS5003;40450;55.848;-3.572;2023-06-10T07:53:24;17;15;
54553;PMS5003;40450;55.848;-3.572;2023-06-10T07:55:55;17;16;
54553;PMS5003;40450;55.848;-3.572;2023-06-10T07:58:25;23;18;
54553;PMS5003;40450;55.848;-3.572;2023-06-10T08:00:55;20;15;
54553;PMS5003;40450;55.848;-3.572;2023-06-10T08:03:25;15;15;
54553;PMS5003;40450;55.848;-3.572;2023-06-10T08:05:56;19;15;
54553;PMS5003;40450;55.848;-3.572;2023-06-10T08:08:26;16;16;
54553;PMS5003;40450;55.848;-3.572;2023-06-10T08:10:56;21;17;
54553;PMS5003;40450;55.848;-3.572;2023-06-10T08:13:27;14;12;
54553;PMS5003;40450;55.848;-3.572;2023-06-10T08:15:58;12;12;
54553;PMS5003;40450;55.848;-3.572;2023-06-10T08:18:28;19;16;
54553;PMS5003;40450;55.848;-3.572;2023-06-10T08:20:58;18;15;
54553;PMS5003;40450;55.848;-3.572;2023-06-10T08:23:28;15;15;
54553;PMS5003;40450;55.848;-3.572;2023-06-10T08:25:59;18;16;
54553;PMS5003;40450;55.848;-3.572;2023-06-10T08:28:29;14;11;
54553;PMS5003;40450;55.848;-3.572;2023-06-10T08:31:00;21;15;
54553;PMS5003;40450;55.848;-3.572;2023-06-10T08:33:30;17;13;
54553;PMS5003;40450;55.848;-3.572;2023-06-10T08:36:00;16;14;
54553;PMS5003;40450;55.848;-3.572;2023-06-10T08:38:30;14;12;
54553;PMS5003;40450;55.848;-3.572;2023-06-10T08:41:01;17;14;
54553;PMS5003;40450;55.848;-3.572;2023-06-10T08:43:31;16;16;
54553;PMS5003;40450;55.848;-3.572;2023-06-10T08:46:01;12;11;
54553;PMS5003;40450;55.848;-3.572;2023-06-10T08:48:31;13;13;
54553;PMS5003;40450;55.848;-3.572;2023-06-10T08:51:01;9;9;
54553;PMS5003;40450;55.848;-3.572;2023-06-10T08:53:32;15;15;
54553;PMS5003;40450;55.848;-3.572;2023-06-10T08:56:02;15;13;
54553;PMS5003;40450;55.848;-3.572;2023-06-10T08:58:32;18;13;
54553;PMS5003;40450;55.848;-3.572;2023-06-10T09:01:02;14;12;
54553;PMS5003;40450;55.848;-3.572;2023-06-10T09:03:33;15;13;
54553;PMS5003;40450;55.848;-3.572;2023-06-10T09:06:04;14;12;
54553;PMS5003;40450;55.848;-3.572;2023-06-10T09:08:34;14;14;
54553;PMS5003;40450;55.848;-3.572;2023-06-10T09:11:04;15;15;
54553;PMS5003;40450;55.848;-3.572;2023-06-10T09:13:35;18;17;
54553;PMS5003;40450;55.848;-3.572;2023-06-10T09:16:05;17;14;
54553;PMS5003;40450;55.848;-3.572;2023-06-10T09:18:35;18;13;
54553;PMS5003;40450;55.848;-3.572;2023-06-10T09:21:06;18;16;
54553;PMS5003;40450;55.848;-3.572;2023-06-10T09:23:36;16;14;
54553;PMS5003;40450;55.848;-3.572;2023-06-10T09:26:08;13;13;
54553;PMS5003;40450;55.848;-3.572;2023-06-10T09:28:37;11;11;
54553;PMS5003;40450;55.848;-3.572;2023-06-10T09:31:07;13;11;
54553;PMS5003;40450;55.848;-3.572;2023-06-10T09:33:38;12;12;
54553;PMS5003;40450;55.848;-3.572;2023-06-10T09:36:08;18;16;
54553;PMS5003;40450;55.848;-3.572;2023-06-10T09:38:38;16;14;
54553;PMS5003;40450;55.848;-3.572;2023-06-10T09:41:09;17;15;
54553;PMS5003;40450;55.848;-3.572;2023-06-10T09:43:41;15;15;
54553;PMS5003;40450;55.848;-3.572;2023-06-10T09:46:15;14;14;
54553;PMS5003;40450;55.848;-3.572;2023-06-10T09:48:41;15;14;
54553;PMS5003;40450;55.848;-3.572;2023-06-10T09:51:11;16;13;
54553;PMS5003;40450;55.848;-3.572;2023-06-10T09:53:41;16;16;
54553;PMS5003;40450;55.848;-3.572;2023-06-10T09:56:11;16;14;
54553;PMS5003;40450;55.848;-3.572;2023-06-10T09:58:41;15;15;
54553;PMS5003;40450;55.848;-3.572;2023-06-10T10:01:13;12;12;
54553;PMS5003;40450;55.848;-3.572;2023-06-10T10:03:44;20;18;
54553;PMS5003;40450;55.848;-3.572;2023-06-10T10:06:13;13;13;
54553;PMS5003;40450;55.848;-3.572;2023-06-10T10:08:43;16;15;
54553;PMS5003;40450;55.848;-3.572;2023-06-10T10:11:13;18;17;
54553;PMS5003;40450;55.848;-3.572;2023-06-10T10:13:44;16;15;
54553;PMS5003;40450;55.848;-3.572;2023-06-10T10:16:15;15;14;
54553;PMS5003;40450;55.848;-3.572;2023-06-10T10:18:46;11;11;
54553;PMS5003;40450;55.848;-3.572;2023-06-10T10:21:15;16;16;
54553;PMS5003;40450;55.848;-3.572;2023-06-10T10:23:48;14;14;
54553;PMS5003;40450;55.848;-3.572;2023-06-10T10:26:15;14;14;
54553;PMS5003;40450;55.848;-3.572;2023-06-10T10:28:47;13;13;
54553;PMS5003;40450;55.848;-3.572;2023-06-10T10:31:16;15;12;
54553;PMS5003;40450;55.848;-3.572;2023-06-10T10:33:50;20;15;
54553;PMS5003;40450;55.848;-3.572;2023-06-10T10:36:17;17;17;
54553;PMS5003;40450;55.848;-3.572;2023-06-10T10:38:47;13;13;
54553;PMS5003;40450;55.848;-3.572;2023-06-10T10:41:17;19;16;
54553;PMS5003;40450;55.848;-3.572;2023-06-10T10:43:48;15;13;
54553;PMS5003;40450;55.848;-3.572;2023-06-10T10:46:18;21;18;
54553;PMS5003;40450;55.848;-3.572;2023-06-10T10:48:51;18;15;
54553;PMS5003;40450;55.848;-3.572;2023-06-10T10:51:18;14;14;
54553;PMS5003;40450;55.848;-3.572;2023-06-10T10:56:19;19;17;
54553;PMS5003;40450;55.848;-3.572;2023-06-10T11:01:19;13;13;
54553;PMS5003;40450;55.848;-3.572;2023-06-10T11:03:49;21;14;
54553;PMS5003;40450;55.848;-3.572;2023-06-10T11:06:19;18;17;
54553;PMS5003;40450;55.848;-3.572;2023-06-10T11:08:49;12;12;
54553;PMS5003;40450;55.848;-3.572;2023-06-10T11:11:21;18;15;
54553;PMS5003;40450;55.848;-3.572;2023-06-10T11:16:21;16;15;
54553;PMS5003;40450;55.848;-3.572;2023-06-10T11:18:53;14;13;
54553;PMS5003;40450;55.848;-3.572;2023-06-10T11:21:23;15;14;
54553;PMS5003;40450;55.848;-3.572;2023-06-10T11:23:52;15;15;
54553;PMS5003;40450;55.848;-3.572;2023-06-10T11:31:23;15;15;
54553;PMS5003;40450;55.848;-3.572;2023-06-10T11:33:53;15;14;
54553;PMS5003;40450;55.848;-3.572;2023-06-10T11:36:23;13;10;
54553;PMS5003;40450;55.848;-3.572;2023-06-10T11:38:55;15;12;
54553;PMS5003;40450;55.848;-3.572;2023-06-10T11:41:24;13;13;
54553;PMS5003;40450;55.848;-3.572;2023-06-10T11:43:54;15;14;
54553;PMS5003;40450;55.848;-3.572;2023-06-10T11:46:24;16;15;
54553;PMS5003;40450;55.848;-3.572;2023-06-10T11:48:54;13;11;
54553;PMS5003;40450;55.848;-3.572;2023-06-10T11:51:26;16;13;
54553;PMS5003;40450;55.848;-3.572;2023-06-10T11:53:56;15;13;
54553;PMS5003;40450;55.848;-3.572;2023-06-10T11:56:27;11;11;
54553;PMS5003;40450;55.848;-3.572;2023-06-10T11:58:59;14;11;
54553;PMS5003;40450;55.848;-3.572;2023-06-10T12:01:28;14;13;
54553;PMS5003;40450;55.848;-3.572;2023-06-10T12:03:59;13;13;
54553;PMS5003;40450;55.848;-3.572;2023-06-10T12:08:59;15;14;
54553;PMS5003;40450;55.848;-3.572;2023-06-10T12:11:29;22;20;
54553;PMS5003;40450;55.848;-3.572;2023-06-10T12:14:00;18;16;
54553;PMS5003;40450;55.848;-3.572;2023-06-10T12:16:30;14;13;
54553;PMS5003;40450;55.848;-3.572;2023-06-10T12:19:01;17;16;
54553;PMS5003;40450;55.848;-3.572;2023-06-10T12:21:31;15;13;
54553;PMS5003;40450;55.848;-3.572;2023-06-10T12:24:03;18;17;
54553;PMS5003;40450;55.848;-3.572;2023-06-10T12:26:35;15;13;
54553;PMS5003;40450;55.848;-3.572;2023-06-10T12:29:01;13;13;
54553;PMS5003;40450;55.848;-3.572;2023-06-10T12:31:32;13;13;
54553;PMS5003;40450;55.848;-3.572;2023-06-10T12:36:33;16;13;
54553;PMS5003;40450;55.848;-3.572;2023-06-10T12:39:03;13;11;
54553;PMS5003;40450;55.848;-3.572;2023-06-10T12:41:36;19;17;
54553;PMS5003;40450;55.848;-3.572;2023-06-10T12:44:03;14;13;
54553;PMS5003;40450;55.848;-3.572;2023-06-10T12:46:36;14;14;
54553;PMS5003;40450;55.848;-3.572;2023-06-10T12:49:04;12;12;
54553;PMS5003;40450;55.848;-3.572;2023-06-10T12:51:34;14;12;
54553;PMS5003;40450;55.848;-3.572;2023-06-10T12:54:04;14;12;
54553;PMS5003;40450;55.848;-3.572;2023-06-10T12:56:35;14;12;
54553;PMS5003;40450;55.848;-3.572;2023-06-10T12:59:05;13;12;
54553;PMS5003;40450;55.848;-3.572;2023-06-10T13:01:36;14;14;
54553;PMS5003;40450;55.848;-3.572;2023-06-10T13:04:06;12;12;
54553;PMS5003;40450;55.848;-3.572;2023-06-10T13:06:36;13;13;
54553;PMS5003;40450;55.848;-3.572;2023-06-10T13:09:06;12;9;
54553;PMS5003;40450;55.848;-3.572;2023-06-10T13:11:37;13;13;
54553;PMS5003;40450;55.848;-3.572;2023-06-10T13:14:07;13;12;
54553;PMS5003;40450;55.848;-3.572;2023-06-10T13:16:37;14;12;
54553;PMS5003;40450;55.848;-3.572;2023-06-10T13:19:08;12;12;
54553;PMS5003;40450;55.848;-3.572;2023-06-10T13:21:38;14;10;
54553;PMS5003;40450;55.848;-3.572;2023-06-10T13:24:08;12;10;
54553;PMS5003;40450;55.848;-3.572;2023-06-10T13:26:39;15;12;
54553;PMS5003;40450;55.848;-3.572;2023-06-10T13:29:09;11;10;
54553;PMS5003;40450;55.848;-3.572;2023-06-10T13:31:40;15;15;
54553;PMS5003;40450;55.848;-3.572;2023-06-10T13:34:10;13;11;
54553;PMS5003;40450;55.848;-3.572;2023-06-10T13:36:40;12;11;
54553;PMS5003;40450;55.848;-3.572;2023-06-10T13:39:10;9;9;
54553;PMS5003;40450;55.848;-3.572;2023-06-10T13:41:41;14;13;
54553;PMS5003;40450;55.848;-3.572;2023-06-10T13:44:11;12;9;
54553;PMS5003;40450;55.848;-3.572;2023-06-10T13:46:42;13;10;
54553;PMS5003;40450;55.848;-3.572;2023-06-10T13:49:12;13;11;
54553;PMS5003;40450;55.848;-3.572;2023-06-10T13:51:42;12;8;
54553;PMS5003;40450;55.848;-3.572;2023-06-10T13:54:12;11;9;
54553;PMS5003;40450;55.848;-3.572;2023-06-10T13:56:43;10;9;
54553;PMS5003;40450;55.848;-3.572;2023-06-10T13:59:13;11;11;
54553;PMS5003;40450;55.848;-3.572;2023-06-10T14:01:44;16;13;
54553;PMS5003;40450;55.848;-3.572;2023-06-10T14:04:14;11;10;
54553;PMS5003;40450;55.848;-3.572;2023-06-10T14:06:45;13;12;
54553;PMS5003;40450;55.848;-3.572;2023-06-10T14:09:16;13;12;
54553;PMS5003;40450;55.848;-3.572;2023-06-10T14:11:46;14;13;
54553;PMS5003;40450;55.848;-3.572;2023-06-10T14:14:16;10;8;
54553;PMS5003;40450;55.848;-3.572;2023-06-10T14:16:46;15;11;
54553;PMS5003;40450;55.848;-3.572;2023-06-10T14:19:16;10;10;
54553;PMS5003;40450;55.848;-3.572;2023-06-10T14:21:47;11;10;
54553;PMS5003;40450;55.848;-3.572;2023-06-10T14:24:17;11;10;
54553;PMS5003;40450;55.848;-3.572;2023-06-10T14:26:47;11;9;
54553;PMS5003;40450;55.848;-3.572;2023-06-10T14:29:18;14;12;
54553;PMS5003;40450;55.848;-3.572;2023-06-10T14:31:49;12;12;
54553;PMS5003;40450;55.848;-3.572;2023-06-10T14:34:19;9;9;
54553;PMS5003;40450;55.848;-3.572;2023-06-10T14:36:50;14;12;
54553;PMS5003;40450;55.848;-3.572;2023-06-10T14:39:20;10;10;
54553;PMS5003;40450;55.848;-3.572;2023-06-10T14:41:50;11;10;
54553;PMS5003;40450;55.848;-3.572;2023-06-10T14:44:20;11;11;
54553;PMS5003;40450;55.848;-3.572;2023-06-10T14:46:51;12;12;
54553;PMS5003;40450;55.848;-3.572;2023-06-10T14:49:22;11;10;
54553;PMS5003;40450;55.848;-3.572;2023-06-10T14:51:52;14;13;
54553;PMS5003;40450;55.848;-3.572;2023-06-10T14:54:22;11;11;
54553;PMS5003;40450;55.848;-3.572;2023-06-10T14:56:53;12;12;
54553;PMS5003;40450;55.848;-3.572;2023-06-10T14:59:23;10;9;
54553;PMS5003;40450;55.848;-3.572;2023-06-10T15:01:54;13;13;
54553;PMS5003;40450;55.848;-3.572;2023-06-10T15:04:25;13;13;
54553;PMS5003;40450;55.848;-3.572;2023-06-10T15:06:56;10;10;
54553;PMS5003;40450;55.848;-3.572;2023-06-10T15:09:26;12;12;
54553;PMS5003;40450;55.848;-3.572;2023-06-10T15:11:56;12;12;
54553;PMS5003;40450;55.848;-3.572;2023-06-10T15:14:26;11;10;
54553;PMS5003;40450;55.848;-3.572;2023-06-10T15:16:57;11;11;
54553;PMS5003;40450;55.848;-3.572;2023-06-10T15:19:27;11;11;
54553;PMS5003;40450;55.848;-3.572;2023-06-10T15:21:58;9;9;
54553;PMS5003;40450;55.848;-3.572;2023-06-10T15:24:29;13;10;
54553;PMS5003;40450;55.848;-3.572;2023-06-10T15:26:59;12;11;
54553;PMS5003;40450;55.848;-3.572;2023-06-10T15:29:29;12;12;
54553;PMS5003;40450;55.848;-3.572;2023-06-10T15:32:00;9;8;
54553;PMS5003;40450;55.848;-3.572;2023-06-10T15:34:30;13;11;
54553;PMS5003;40450;55.848;-3.572;2023-06-10T15:37:00;9;9;
54553;PMS5003;40450;55.848;-3.572;2023-06-10T15:39:31;11;11;
54553;PMS5003;40450;55.848;-3.572;2023-06-10T15:42:02;12;12;
54553;PMS5003;40450;55.848;-3.572;2023-06-10T15:44:32;10;10;
54553;PMS5003;40450;55.848;-3.572;2023-06-10T15:47:03;11;10;
54553;PMS5003;40450;55.848;-3.572;2023-06-10T15:49:33;12;11;
54553;PMS5003;40450;55.848;-3.572;2023-06-10T15:52:04;11;9;
54553;PMS5003;40450;55.848;-3.572;2023-06-10T15:54:34;15;13;
54553;PMS5003;40450;55.848;-3.572;2023-06-10T15:57:05;11;11;
54553;PMS5003;40450;55.848;-3.572;2023-06-10T15:59:35;11;10;
54553;PMS5003;40450;55.848;-3.572;2023-06-10T16:02:05;11;11;
54553;PMS5003;40450;55.848;-3.572;2023-06-10T16:04:35;13;13;
54553;PMS5003;40450;55.848;-3.572;2023-06-10T16:07:06;13;13;
54553;PMS5003;40450;55.848;-3.572;2023-06-10T16:09:36;11;11;
54553;PMS5003;40450;55.848;-3.572;2023-06-10T16:12:06;15;15;
54553;PMS5003;40450;55.848;-3.572;2023-06-10T16:14:36;12;11;
54553;PMS5003;40450;55.848;-3.572;2023-06-10T16:17:06;14;14;
54553;PMS5003;40450;55.848;-3.572;2023-06-10T16:19:37;10;8;
54553;PMS5003;40450;55.848;-3.572;2023-06-10T16:22:07;10;9;
54553;PMS5003;40450;55.848;-3.572;2023-06-10T16:24:38;13;12;
54553;PMS5003;40450;55.848;-3.572;2023-06-10T16:27:08;12;11;
54553;PMS5003;40450;55.848;-3.572;2023-06-10T16:29:39;15;11;
54553;PMS5003;40450;55.848;-3.572;2023-06-10T16:32:09;15;14;
54553;PMS5003;40450;55.848;-3.572;2023-06-10T16:34:39;13;12;
54553;PMS5003;40450;55.848;-3.572;2023-06-10T16:37:10;16;15;
54553;PMS5003;40450;55.848;-3.572;2023-06-10T16:39:41;18;15;